Axantha II — CQKN — position and weather

sailwx.info

Track history (hours):
 
Tides and Currents Weather Stations Pressure Air Temp Water Temp Dewpoint Dewpoint Depression Visibility Wind Speed Wind Dir Waves Ship Positions

Axantha II

Last reported at 2014-Jul-19 21:05 UTC. Time now 2014-Jul-22 15:03 UTC.
Position N 42°26' E 009°52'.

Length 43 m; draft 2.8 m.

Type: Cargo ship. MMSI: 255804580.

Date/timePositionNaut miles runAvg speedWind from/ knotsBaromVisibWave heightAir tempDewpointWater temp
2014-Jul-19 21:05N 42°26' E 009°52'712.6
2014-Jul-19 20:33N 42°32' E 009°56'1412.7
2014-Jul-19 19:29N 42°45' E 010°03'10 2.5
2014-Jul-19 15:33N 42°48' E 010°16'0 0.0
2014-Jul-19 12:24N 42°48' E 010°16'0 0.0
2014-Jul-19 11:33N 42°48' E 010°16'0 0.0
2014-Jul-19 10:33N 42°48' E 010°16'0 0.0
2014-Jul-19 09:33N 42°48' E 010°16'3 3.2
2014-Jul-19 08:33N 42°48' E 010°20'0 0.0
2014-Jul-19 07:33N 42°48' E 010°20'0 0.0
2014-Jul-19 04:24N 42°48' E 010°20'0 0.0
2014-Jul-19 03:15N 42°48' E 010°20'0 0.0
2014-Jul-18 19:29N 42°48' E 010°20'4 4.1
2014-Jul-18 18:29N 42°48' E 010°15'0 0.0
2014-Jul-18 17:31N 42°48' E 010°15'0 0.0
2014-Jul-18 16:32N 42°48' E 010°15'0 0.0
2014-Jul-18 15:27N 42°48' E 010°15'0 0.0
2014-Jul-18 14:33N 42°48' E 010°15'3 2.9
2014-Jul-18 13:33N 42°50' E 010°16'9 0.6
2014-Jul-17 22:09N 42°48' E 010°28'712.0
2014-Jul-17 21:32N 42°55' E 010°27'1313.2
2014-Jul-17 20:33N 43°07' E 010°19'1413.6
2014-Jul-17 19:33N 43°19' E 010°12'1312.9
2014-Jul-17 18:33N 43°31' E 010°06'1212.0
2014-Jul-17 17:33N 43°43' E 010°01'1312.6
2014-Jul-17 16:33N 43°55' E 009°55'9 9.2
2014-Jul-17 15:33N 44°03' E 009°51'0 0.0
2014-Jul-17 14:33N 44°03' E 009°51'0 0.0
2014-Jul-17 13:33N 44°03' E 009°51'0 0.0
2014-Jul-17 12:33N 44°03' E 009°51'0 0.0
2014-Jul-17 11:33N 44°03' E 009°51'0 0.0
2014-Jul-17 10:33N 44°03' E 009°51'0 0.0
2014-Jul-17 09:33N 44°03' E 009°51'0 0.0
2014-Jul-17 08:33N 44°03' E 009°51'0 0.0
2014-Jul-17 07:33N 44°03' E 009°51'0 0.0
2014-Jul-17 06:33N 44°03' E 009°51'0 0.0
2014-Jul-17 05:33N 44°03' E 009°51'0 0.0
2014-Jul-17 04:33N 44°03' E 009°51'0 0.0
2014-Jul-17 03:33N 44°03' E 009°51'0 0.0
2014-Jul-17 02:33N 44°03' E 009°51'0 0.0
2014-Jul-17 01:33N 44°03' E 009°51'0 0.0
2014-Jul-17 00:33N 44°03' E 009°51'0 0.0
2014-Jul-16 23:33N 44°03' E 009°51'0 0.0
2014-Jul-16 22:33N 44°03' E 009°51'0 0.0
2014-Jul-16 21:33N 44°03' E 009°51'4 4.1
2014-Jul-16 20:33N 44°01' E 009°46'1212.5
2014-Jul-16 19:33N 44°10' E 009°34'1711.9
2014-Jul-16 18:07N 44°19' E 009°13'0 0.1
2014-Jul-16 17:21N 44°19' E 009°13'0 0.0
2014-Jul-16 16:33N 44°19' E 009°13'0 0.0
2014-Jul-16 15:16N 44°19' E 009°13'0 0.0
2014-Jul-16 14:24N 44°19' E 009°13'0 0.0
2014-Jul-16 13:31N 44°19' E 009°13'0 0.0
2014-Jul-16 12:22N 44°19' E 009°13'0 0.0
2014-Jul-16 11:33N 44°19' E 009°13'0 0.0
2014-Jul-16 10:33N 44°19' E 009°13'0 0.0
2014-Jul-16 09:31N 44°19' E 009°13'0 0.0
2014-Jul-16 08:33N 44°19' E 009°13'0 0.0
2014-Jul-16 07:24N 44°19' E 009°13'0 0.0
2014-Jul-16 06:33N 44°19' E 009°13'0 0.0
2014-Jul-16 05:33N 44°19' E 009°13'0 0.0
2014-Jul-16 04:33N 44°19' E 009°13'0 0.0
2014-Jul-16 03:32N 44°19' E 009°13'0 0.0
2014-Jul-16 02:33N 44°19' E 009°13'0 0.0
2014-Jul-16 00:33N 44°19' E 009°13'0 0.0
2014-Jul-15 22:29N 44°19' E 009°13'0 0.0
2014-Jul-15 21:25N 44°19' E 009°13'0 0.0
2014-Jul-15 20:33N 44°19' E 009°13'0 0.0
2014-Jul-15 16:21N 44°19' E 009°13'0 0.0
2014-Jul-15 15:32N 44°19' E 009°13'0 0.0
2014-Jul-15 14:33N 44°19' E 009°13'1 0.6
2014-Jul-15 13:33N 44°19' E 009°13'0 0.0
2014-Jul-15 12:33N 44°19' E 009°13'0 0.0
2014-Jul-15 11:31N 44°19' E 009°13'0 0.0
2014-Jul-15 10:17N 44°19' E 009°13'0 0.0
2014-Jul-15 09:29N 44°19' E 009°13'0 0.0
2014-Jul-15 08:13N 44°19' E 009°13'0 0.0
2014-Jul-15 07:32N 44°19' E 009°13'0 0.0
2014-Jul-15 04:32N 44°19' E 009°13'0 0.0
2014-Jul-15 03:33N 44°19' E 009°13'0 0.0
2014-Jul-15 02:18N 44°19' E 009°13'0 0.0
2014-Jul-15 01:33N 44°19' E 009°13'3 1.0
2014-Jul-14 22:33N 44°17' E 009°11'1312.3
2014-Jul-14 21:30N 44°10' E 008°55'74 9.2
2014-Jul-14 13:28N 43°42' E 007°20'0 0.0
2014-Jul-14 09:28N 43°42' E 007°20'0 0.0
2014-Jul-14 02:16N 43°42' E 007°20'0 0.0
2014-Jul-14 01:16N 43°42' E 007°20'0 0.0
2014-Jul-14 00:28N 43°42' E 007°20'0 0.0
2014-Jul-13 23:28N 43°42' E 007°20'0 0.0
2014-Jul-13 22:16N 43°42' E 007°20'0 0.0
2014-Jul-13 21:33N 43°42' E 007°20'0 0.0
2014-Jul-13 20:33N 43°42' E 007°20'0 0.0
2014-Jul-13 19:33N 43°42' E 007°20'0 0.0
2014-Jul-13 18:33N 43°42' E 007°20'0 0.0
2014-Jul-13 17:33N 43°42' E 007°20'0 0.0
2014-Jul-13 16:33N 43°42' E 007°20'0 0.0
2014-Jul-13 15:19N 43°42' E 007°20'0 0.0
2014-Jul-13 14:15N 43°42' E 007°20'0 0.0
2014-Jul-13 13:28N 43°42' E 007°20'0 0.0
2014-Jul-13 12:32N 43°42' E 007°20'2 1.6
2014-Jul-13 11:32N 43°40' E 007°20'2 0.6
2014-Jul-13 08:12N 43°42' E 007°19'0 0.0
2014-Jul-13 04:24N 43°42' E 007°19'0 0.0
2014-Jul-13 03:30N 43°42' E 007°19'0 0.0
2014-Jul-13 01:30N 43°42' E 007°19'0 0.0
2014-Jul-13 00:06N 43°42' E 007°19'0 0.0
2014-Jul-12 22:12N 43°42' E 007°19'0 0.0
2014-Jul-12 21:18N 43°42' E 007°19'0 0.0
2014-Jul-12 18:05N 43°42' E 007°19'0 0.0
2014-Jul-12 17:17N 43°42' E 007°19'0 0.0
2014-Jul-12 15:23N 43°42' E 007°19'6 7.4
2014-Jul-12 14:33N 43°37' E 007°15'1211.6
2014-Jul-12 13:33N 43°28' E 007°03'1211.9
2014-Jul-12 12:33N 43°22' E 006°50'1110.5
2014-Jul-12 11:33N 43°16' E 006°37'0 0.0
2014-Jul-12 10:30N 43°16' E 006°37'0 0.0
2014-Jul-12 09:18N 43°16' E 006°37'0 0.0
2014-Jul-12 08:27N 43°16' E 006°37'0 0.0
2014-Jul-12 05:24N 43°16' E 006°37'0 0.0
2014-Jul-12 04:30N 43°16' E 006°37'0 0.0
2014-Jul-12 02:27N 43°16' E 006°37'0 0.0
2014-Jul-12 01:21N 43°16' E 006°37'0 0.0
2014-Jul-12 00:18N 43°16' E 006°37'0 0.0
2014-Jul-11 23:30N 43°16' E 006°37'0 0.0
2014-Jul-11 22:30N 43°16' E 006°37'0 0.0
2014-Jul-11 21:30N 43°16' E 006°37'0 0.0
2014-Jul-11 20:30N 43°16' E 006°37'0 0.0
2014-Jul-11 19:33N 43°16' E 006°37'0 0.0
2014-Jul-11 18:32N 43°16' E 006°37'0 0.0
2014-Jul-11 17:33N 43°16' E 006°37'0 0.0
2014-Jul-11 16:33N 43°16' E 006°37'0 0.0
2014-Jul-11 15:33N 43°16' E 006°37'0 0.0
2014-Jul-11 14:32N 43°16' E 006°37'0 0.0
2014-Jul-11 13:33N 43°16' E 006°37'1 0.5
2014-Jul-11 12:33N 43°17' E 006°37'9 8.7
2014-Jul-11 11:33N 43°21' E 006°48'1312.6
2014-Jul-11 10:31N 43°28' E 007°03'1212.5
2014-Jul-11 09:33N 43°37' E 007°14'5 3.8
2014-Jul-11 08:15N 43°42' E 007°17'0 0.2
2014-Jul-11 06:33N 43°41' E 007°17'2 2.0
2014-Jul-11 05:27N 43°42' E 007°20'0 0.0
2014-Jul-11 04:28N 43°42' E 007°20'0 0.0
2014-Jul-11 03:26N 43°42' E 007°20'0 0.0
2014-Jul-11 02:25N 43°42' E 007°20'0 0.0
2014-Jul-11 01:33N 43°42' E 007°20'0 0.0
2014-Jul-11 00:33N 43°42' E 007°20'0 0.0
2014-Jul-10 23:32N 43°42' E 007°20'0 0.0
2014-Jul-10 22:33N 43°42' E 007°20'0 0.0
2014-Jul-10 21:32N 43°42' E 007°20'0 0.0
2014-Jul-10 20:32N 43°42' E 007°20'0 0.0
2014-Jul-10 19:33N 43°42' E 007°20'0 0.0
2014-Jul-10 18:33N 43°42' E 007°20'0 0.0
2014-Jul-10 17:33N 43°42' E 007°20'0 0.0
2014-Jul-10 16:33N 43°42' E 007°20'0 0.0
2014-Jul-10 15:31N 43°42' E 007°20'  
Track history (hours):
 
Tides and Currents Weather Stations Pressure Air Temp Water Temp Dewpoint Dewpoint Depression Visibility Wind Speed Wind Dir Waves Ship Positions

Axantha II

Last reported at 2014-Jul-19 21:05 UTC. Time now 2014-Jul-22 15:03 UTC.
Position N 42°26' E 009°52'.

Length 43 m; draft 2.8 m.

Type: Cargo ship. MMSI: 255804580.

Date/timePositionNaut miles runAvg speedWind from/ knotsBaromVisibWave heightAir tempDewpointWater temp
2014-Jul-19 21:05N 42°26' E 009°52'712.6
2014-Jul-19 20:33N 42°32' E 009°56'1412.7
2014-Jul-19 19:29N 42°45' E 010°03'10 2.5
2014-Jul-19 15:33N 42°48' E 010°16'0 0.0
2014-Jul-19 12:24N 42°48' E 010°16'0 0.0
2014-Jul-19 11:33N 42°48' E 010°16'0 0.0
2014-Jul-19 10:33N 42°48' E 010°16'0 0.0
2014-Jul-19 09:33N 42°48' E 010°16'3 3.2
2014-Jul-19 08:33N 42°48' E 010°20'0 0.0
2014-Jul-19 07:33N 42°48' E 010°20'0 0.0
2014-Jul-19 04:24N 42°48' E 010°20'0 0.0
2014-Jul-19 03:15N 42°48' E 010°20'0 0.0
2014-Jul-18 19:29N 42°48' E 010°20'4 4.1
2014-Jul-18 18:29N 42°48' E 010°15'0 0.0
2014-Jul-18 17:31N 42°48' E 010°15'0 0.0
2014-Jul-18 16:32N 42°48' E 010°15'0 0.0
2014-Jul-18 15:27N 42°48' E 010°15'0 0.0
2014-Jul-18 14:33N 42°48' E 010°15'3 2.9
2014-Jul-18 13:33N 42°50' E 010°16'9 0.6
2014-Jul-17 22:09N 42°48' E 010°28'712.0
2014-Jul-17 21:32N 42°55' E 010°27'1313.2
2014-Jul-17 20:33N 43°07' E 010°19'1413.6
2014-Jul-17 19:33N 43°19' E 010°12'1312.9
2014-Jul-17 18:33N 43°31' E 010°06'1212.0
2014-Jul-17 17:33N 43°43' E 010°01'1312.6
2014-Jul-17 16:33N 43°55' E 009°55'9 9.2
2014-Jul-17 15:33N 44°03' E 009°51'0 0.0
2014-Jul-17 14:33N 44°03' E 009°51'0 0.0
2014-Jul-17 13:33N 44°03' E 009°51'0 0.0
2014-Jul-17 12:33N 44°03' E 009°51'0 0.0
2014-Jul-17 11:33N 44°03' E 009°51'0 0.0
2014-Jul-17 10:33N 44°03' E 009°51'0 0.0
2014-Jul-17 09:33N 44°03' E 009°51'0 0.0
2014-Jul-17 08:33N 44°03' E 009°51'0 0.0
2014-Jul-17 07:33N 44°03' E 009°51'0 0.0
2014-Jul-17 06:33N 44°03' E 009°51'0 0.0
2014-Jul-17 05:33N 44°03' E 009°51'0 0.0
2014-Jul-17 04:33N 44°03' E 009°51'0 0.0
2014-Jul-17 03:33N 44°03' E 009°51'0 0.0
2014-Jul-17 02:33N 44°03' E 009°51'0 0.0
2014-Jul-17 01:33N 44°03' E 009°51'0 0.0
2014-Jul-17 00:33N 44°03' E 009°51'0 0.0
2014-Jul-16 23:33N 44°03' E 009°51'0 0.0
2014-Jul-16 22:33N 44°03' E 009°51'0 0.0
2014-Jul-16 21:33N 44°03' E 009°51'4 4.1
2014-Jul-16 20:33N 44°01' E 009°46'1212.5
2014-Jul-16 19:33N 44°10' E 009°34'1711.9
2014-Jul-16 18:07N 44°19' E 009°13'0 0.1
2014-Jul-16 17:21N 44°19' E 009°13'0 0.0
2014-Jul-16 16:33N 44°19' E 009°13'0 0.0
2014-Jul-16 15:16N 44°19' E 009°13'0 0.0
2014-Jul-16 14:24N 44°19' E 009°13'0 0.0
2014-Jul-16 13:31N 44°19' E 009°13'0 0.0
2014-Jul-16 12:22N 44°19' E 009°13'0 0.0
2014-Jul-16 11:33N 44°19' E 009°13'0 0.0
2014-Jul-16 10:33N 44°19' E 009°13'0 0.0
2014-Jul-16 09:31N 44°19' E 009°13'0 0.0
2014-Jul-16 08:33N 44°19' E 009°13'0 0.0
2014-Jul-16 07:24N 44°19' E 009°13'0 0.0
2014-Jul-16 06:33N 44°19' E 009°13'0 0.0
2014-Jul-16 05:33N 44°19' E 009°13'0 0.0
2014-Jul-16 04:33N 44°19' E 009°13'0 0.0
2014-Jul-16 03:32N 44°19' E 009°13'0 0.0
2014-Jul-16 02:33N 44°19' E 009°13'0 0.0
2014-Jul-16 00:33N 44°19' E 009°13'0 0.0
2014-Jul-15 22:29N 44°19' E 009°13'0 0.0
2014-Jul-15 21:25N 44°19' E 009°13'0 0.0
2014-Jul-15 20:33N 44°19' E 009°13'0 0.0
2014-Jul-15 16:21N 44°19' E 009°13'0 0.0
2014-Jul-15 15:32N 44°19' E 009°13'0 0.0
2014-Jul-15 14:33N 44°19' E 009°13'1 0.6
2014-Jul-15 13:33N 44°19' E 009°13'0 0.0
2014-Jul-15 12:33N 44°19' E 009°13'0 0.0
2014-Jul-15 11:31N 44°19' E 009°13'0 0.0
2014-Jul-15 10:17N 44°19' E 009°13'0 0.0
2014-Jul-15 09:29N 44°19' E 009°13'0 0.0
2014-Jul-15 08:13N 44°19' E 009°13'0 0.0
2014-Jul-15 07:32N 44°19' E 009°13'0 0.0
2014-Jul-15 04:32N 44°19' E 009°13'0 0.0
2014-Jul-15 03:33N 44°19' E 009°13'0 0.0
2014-Jul-15 02:18N 44°19' E 009°13'0 0.0
2014-Jul-15 01:33N 44°19' E 009°13'3 1.0
2014-Jul-14 22:33N 44°17' E 009°11'1312.3
2014-Jul-14 21:30N 44°10' E 008°55'74 9.2
2014-Jul-14 13:28N 43°42' E 007°20'0 0.0
2014-Jul-14 09:28N 43°42' E 007°20'0 0.0
2014-Jul-14 02:16N 43°42' E 007°20'0 0.0
2014-Jul-14 01:16N 43°42' E 007°20'0 0.0
2014-Jul-14 00:28N 43°42' E 007°20'0 0.0
2014-Jul-13 23:28N 43°42' E 007°20'0 0.0
2014-Jul-13 22:16N 43°42' E 007°20'0 0.0
2014-Jul-13 21:33N 43°42' E 007°20'0 0.0
2014-Jul-13 20:33N 43°42' E 007°20'0 0.0
2014-Jul-13 19:33N 43°42' E 007°20'0 0.0
2014-Jul-13 18:33N 43°42' E 007°20'0 0.0
2014-Jul-13 17:33N 43°42' E 007°20'0 0.0
2014-Jul-13 16:33N 43°42' E 007°20'0 0.0
2014-Jul-13 15:19N 43°42' E 007°20'0 0.0
2014-Jul-13 14:15N 43°42' E 007°20'0 0.0
2014-Jul-13 13:28N 43°42' E 007°20'0 0.0
2014-Jul-13 12:32N 43°42' E 007°20'2 1.6
2014-Jul-13 11:32N 43°40' E 007°20'2 0.6
2014-Jul-13 08:12N 43°42' E 007°19'0 0.0
2014-Jul-13 04:24N 43°42' E 007°19'0 0.0
2014-Jul-13 03:30N 43°42' E 007°19'0 0.0
2014-Jul-13 01:30N 43°42' E 007°19'0 0.0
2014-Jul-13 00:06N 43°42' E 007°19'0 0.0
2014-Jul-12 22:12N 43°42' E 007°19'0 0.0
2014-Jul-12 21:18N 43°42' E 007°19'0 0.0
2014-Jul-12 18:05N 43°42' E 007°19'0 0.0
2014-Jul-12 17:17N 43°42' E 007°19'0 0.0
2014-Jul-12 15:23N 43°42' E 007°19'6 7.4
2014-Jul-12 14:33N 43°37' E 007°15'1211.6
2014-Jul-12 13:33N 43°28' E 007°03'1211.9
2014-Jul-12 12:33N 43°22' E 006°50'1110.5
2014-Jul-12 11:33N 43°16' E 006°37'0 0.0
2014-Jul-12 10:30N 43°16' E 006°37'0 0.0
2014-Jul-12 09:18N 43°16' E 006°37'0 0.0
2014-Jul-12 08:27N 43°16' E 006°37'0 0.0
2014-Jul-12 05:24N 43°16' E 006°37'0 0.0
2014-Jul-12 04:30N 43°16' E 006°37'0 0.0
2014-Jul-12 02:27N 43°16' E 006°37'0 0.0
2014-Jul-12 01:21N 43°16' E 006°37'0 0.0
2014-Jul-12 00:18N 43°16' E 006°37'0 0.0
2014-Jul-11 23:30N 43°16' E 006°37'0 0.0
2014-Jul-11 22:30N 43°16' E 006°37'0 0.0
2014-Jul-11 21:30N 43°16' E 006°37'0 0.0
2014-Jul-11 20:30N 43°16' E 006°37'0 0.0
2014-Jul-11 19:33N 43°16' E 006°37'0 0.0
2014-Jul-11 18:32N 43°16' E 006°37'0 0.0
2014-Jul-11 17:33N 43°16' E 006°37'0 0.0
2014-Jul-11 16:33N 43°16' E 006°37'0 0.0
2014-Jul-11 15:33N 43°16' E 006°37'0 0.0
2014-Jul-11 14:32N 43°16' E 006°37'0 0.0
2014-Jul-11 13:33N 43°16' E 006°37'1 0.5
2014-Jul-11 12:33N 43°17' E 006°37'9 8.7
2014-Jul-11 11:33N 43°21' E 006°48'1312.6
2014-Jul-11 10:31N 43°28' E 007°03'1212.5
2014-Jul-11 09:33N 43°37' E 007°14'5 3.8
2014-Jul-11 08:15N 43°42' E 007°17'0 0.2
2014-Jul-11 06:33N 43°41' E 007°17'2 2.0
2014-Jul-11 05:27N 43°42' E 007°20'0 0.0
2014-Jul-11 04:28N 43°42' E 007°20'0 0.0
2014-Jul-11 03:26N 43°42' E 007°20'0 0.0
2014-Jul-11 02:25N 43°42' E 007°20'0 0.0
2014-Jul-11 01:33N 43°42' E 007°20'0 0.0
2014-Jul-11 00:33N 43°42' E 007°20'0 0.0
2014-Jul-10 23:32N 43°42' E 007°20'0 0.0
2014-Jul-10 22:33N 43°42' E 007°20'0 0.0
2014-Jul-10 21:32N 43°42' E 007°20'0 0.0
2014-Jul-10 20:32N 43°42' E 007°20'0 0.0
2014-Jul-10 19:33N 43°42' E 007°20'0 0.0
2014-Jul-10 18:33N 43°42' E 007°20'0 0.0
2014-Jul-10 17:33N 43°42' E 007°20'0 0.0
2014-Jul-10 16:33N 43°42' E 007°20'0 0.0
2014-Jul-10 15:31N 43°42' E 007°20'  

Dump ship's entire track history